sensor_id;sensor_type;location;lat;lon;timestamp;pressure;altitude;pressure_sealevel;temperature;humidity
54417;BME280;40326;51.220;7.250;2022-08-11T00:01:17;98966.22;;;14.06;100.00
54417;BME280;40326;51.220;7.250;2022-08-11T00:03:55;98974.13;;;14.03;100.00
54417;BME280;40326;51.220;7.250;2022-08-11T00:06:32;98975.69;;;14.05;100.00
54417;BME280;40326;51.220;7.250;2022-08-11T00:09:02;98971.97;;;14.11;100.00
54417;BME280;40326;51.220;7.250;2022-08-11T00:11:37;98972.38;;;14.03;100.00
54417;BME280;40326;51.220;7.250;2022-08-11T00:14:21;98969.63;;;14.06;100.00
54417;BME280;40326;51.220;7.250;2022-08-11T00:16:57;98967.28;;;14.02;100.00
54417;BME280;40326;51.220;7.250;2022-08-11T00:19:26;98972.53;;;14.00;100.00
54417;BME280;40326;51.220;7.250;2022-08-11T00:21:53;98961.91;;;14.06;100.00
54417;BME280;40326;51.220;7.250;2022-08-11T00:24:20;98972.84;;;14.10;100.00
54417;BME280;40326;51.220;7.250;2022-08-11T00:26:51;98970.28;;;14.10;100.00
54417;BME280;40326;51.220;7.250;2022-08-11T00:29:18;98959.66;;;14.16;100.00
54417;BME280;40326;51.220;7.250;2022-08-11T00:31:47;98965.16;;;13.94;100.00
54417;BME280;40326;51.220;7.250;2022-08-11T00:34:17;98969.03;;;14.01;100.00
54417;BME280;40326;51.220;7.250;2022-08-11T00:36:50;98970.13;;;13.97;100.00
54417;BME280;40326;51.220;7.250;2022-08-11T00:39:20;98967.78;;;13.92;100.00
54417;BME280;40326;51.220;7.250;2022-08-11T00:42:03;98971.53;;;13.87;100.00
54417;BME280;40326;51.220;7.250;2022-08-11T00:44:47;98973.78;;;13.77;100.00
54417;BME280;40326;51.220;7.250;2022-08-11T01:07:13;98982.19;;;13.48;100.00
54417;BME280;40326;51.220;7.250;2022-08-11T01:12:44;98973.88;;;13.76;100.00
54417;BME280;40326;51.220;7.250;2022-08-11T01:50:17;98965.22;;;13.61;100.00
54417;BME280;40326;51.220;7.250;2022-08-11T01:53:08;98964.31;;;13.62;100.00
54417;BME280;40326;51.220;7.250;2022-08-11T01:55:51;98966.66;;;13.67;100.00
54417;BME280;40326;51.220;7.250;2022-08-11T02:01:36;98974.66;;;13.45;100.00
54417;BME280;40326;51.220;7.250;2022-08-11T02:12:53;98971.31;;;13.43;100.00
54417;BME280;40326;51.220;7.250;2022-08-11T02:15:28;98970.25;;;13.47;100.00
54417;BME280;40326;51.220;7.250;2022-08-11T02:18:10;98961.03;;;13.43;100.00
54417;BME280;40326;51.220;7.250;2022-08-11T02:23:39;98962.03;;;13.40;100.00
54417;BME280;40326;51.220;7.250;2022-08-11T02:28:54;98966.84;;;13.30;100.00
54417;BME280;40326;51.220;7.250;2022-08-11T02:39:49;98966.88;;;13.12;100.00
54417;BME280;40326;51.220;7.250;2022-08-11T02:42:33;98960.63;;;13.17;100.00
54417;BME280;40326;51.220;7.250;2022-08-11T02:50:36;98956.38;;;13.33;100.00
54417;BME280;40326;51.220;7.250;2022-08-11T02:53:21;98958.34;;;13.28;100.00
54417;BME280;40326;51.220;7.250;2022-08-11T02:59:23;98960.00;;;13.29;100.00
54417;BME280;40326;51.220;7.250;2022-08-11T03:02:28;98959.59;;;13.21;100.00
54417;BME280;40326;51.220;7.250;2022-08-11T03:08:08;98962.03;;;13.40;100.00
54417;BME280;40326;51.220;7.250;2022-08-11T03:13:42;98957.22;;;13.34;100.00
54417;BME280;40326;51.220;7.250;2022-08-11T03:16:50;98962.16;;;13.21;100.00
54417;BME280;40326;51.220;7.250;2022-08-11T03:19:45;98959.78;;;13.17;100.00
54417;BME280;40326;51.220;7.250;2022-08-11T03:22:33;98965.66;;;13.03;100.00
54417;BME280;40326;51.220;7.250;2022-08-11T03:25:17;98960.81;;;12.97;100.00
54417;BME280;40326;51.220;7.250;2022-08-11T03:27:49;98965.69;;;13.01;100.00
54417;BME280;40326;51.220;7.250;2022-08-11T03:30:26;98959.59;;;13.04;100.00
54417;BME280;40326;51.220;7.250;2022-08-11T03:50:03;98962.31;;;12.84;100.00
54417;BME280;40326;51.220;7.250;2022-08-11T03:52:57;98961.94;;;12.74;100.00
54417;BME280;40326;51.220;7.250;2022-08-11T03:58:54;98961.44;;;12.67;100.00
54417;BME280;40326;51.220;7.250;2022-08-11T04:09:46;98965.72;;;12.67;100.00
54417;BME280;40326;51.220;7.250;2022-08-11T04:15:49;98962.19;;;12.69;100.00
54417;BME280;40326;51.220;7.250;2022-08-11T04:26:51;98973.50;;;12.83;100.00
54417;BME280;40326;51.220;7.250;2022-08-11T04:29:38;98968.81;;;12.91;100.00
54417;BME280;40326;51.220;7.250;2022-08-11T04:40:34;98962.53;;;12.96;100.00
54417;BME280;40326;51.220;7.250;2022-08-11T05:12:56;98959.25;;;13.76;100.00
54417;BME280;40326;51.220;7.250;2022-08-11T05:15:48;98963.91;;;13.85;100.00
54417;BME280;40326;51.220;7.250;2022-08-11T05:18:34;98959.50;;;14.03;100.00
54417;BME280;40326;51.220;7.250;2022-08-11T05:21:21;98966.63;;;14.14;100.00
54417;BME280;40326;51.220;7.250;2022-08-11T05:24:17;98966.34;;;14.34;100.00
54417;BME280;40326;51.220;7.250;2022-08-11T05:27:04;98961.44;;;14.45;100.00
54417;BME280;40326;51.220;7.250;2022-08-11T05:30:05;98967.41;;;14.62;100.00
54417;BME280;40326;51.220;7.250;2022-08-11T05:33:04;98955.78;;;14.85;100.00
54417;BME280;40326;51.220;7.250;2022-08-11T05:35:59;98949.47;;;15.19;100.00
54417;BME280;40326;51.220;7.250;2022-08-11T05:38:33;98952.06;;;16.03;100.00
54417;BME280;40326;51.220;7.250;2022-08-11T05:41:23;98935.22;;;17.02;100.00
54417;BME280;40326;51.220;7.250;2022-08-11T05:44:09;98928.16;;;17.92;100.00
54417;BME280;40326;51.220;7.250;2022-08-11T05:46:54;98918.97;;;19.04;100.00
54417;BME280;40326;51.220;7.250;2022-08-11T05:49:39;98915.56;;;18.92;100.00
54417;BME280;40326;51.220;7.250;2022-08-11T05:52:26;98919.75;;;19.94;100.00
54417;BME280;40326;51.220;7.250;2022-08-11T05:55:12;98907.13;;;20.22;100.00
54417;BME280;40326;51.220;7.250;2022-08-11T05:57:58;98920.34;;;19.98;100.00
54417;BME280;40326;51.220;7.250;2022-08-11T06:00:26;98917.47;;;20.86;100.00
54417;BME280;40326;51.220;7.250;2022-08-11T06:02:53;98911.44;;;20.85;100.00
54417;BME280;40326;51.220;7.250;2022-08-11T06:05:20;98914.97;;;21.36;100.00
54417;BME280;40326;51.220;7.250;2022-08-11T06:07:47;98911.31;;;22.17;100.00
54417;BME280;40326;51.220;7.250;2022-08-11T06:10:13;98910.13;;;21.62;100.00
54417;BME280;40326;51.220;7.250;2022-08-11T06:12:52;98910.72;;;21.85;100.00
54417;BME280;40326;51.220;7.250;2022-08-11T06:15:19;98914.84;;;22.55;100.00
54417;BME280;40326;51.220;7.250;2022-08-11T06:17:45;98915.28;;;22.02;100.00
54417;BME280;40326;51.220;7.250;2022-08-11T06:20:12;98906.28;;;22.82;100.00
54417;BME280;40326;51.220;7.250;2022-08-11T06:22:43;98910.97;;;23.25;100.00
54417;BME280;40326;51.220;7.250;2022-08-11T06:25:10;98911.28;;;23.49;100.00
54417;BME280;40326;51.220;7.250;2022-08-11T06:27:38;98908.78;;;23.30;100.00
54417;BME280;40326;51.220;7.250;2022-08-11T06:30:06;98903.28;;;23.61;87.21
54417;BME280;40326;51.220;7.250;2022-08-11T06:32:40;98902.38;;;23.70;97.91
54417;BME280;40326;51.220;7.250;2022-08-11T06:35:17;98902.47;;;23.50;91.84
54417;BME280;40326;51.220;7.250;2022-08-11T06:41:00;98898.03;;;23.61;87.49
54417;BME280;40326;51.220;7.250;2022-08-11T06:43:53;98900.44;;;23.72;83.88
54417;BME280;40326;51.220;7.250;2022-08-11T06:46:28;98902.88;;;23.18;96.50
54417;BME280;40326;51.220;7.250;2022-08-11T06:48:55;98899.28;;;23.29;88.27
54417;BME280;40326;51.220;7.250;2022-08-11T06:51:21;98897.09;;;23.25;85.03
54417;BME280;40326;51.220;7.250;2022-08-11T06:53:55;98899.56;;;23.54;82.20
54417;BME280;40326;51.220;7.250;2022-08-11T06:56:35;98897.50;;;23.57;89.48
54417;BME280;40326;51.220;7.250;2022-08-11T06:59:22;98910.34;;;24.14;82.45
54417;BME280;40326;51.220;7.250;2022-08-11T07:02:23;98914.72;;;23.77;96.68
54417;BME280;40326;51.220;7.250;2022-08-11T07:04:55;98918.34;;;23.94;87.04
54417;BME280;40326;51.220;7.250;2022-08-11T07:14:27;98905.94;;;24.14;75.89
54417;BME280;40326;51.220;7.250;2022-08-11T07:17:15;98905.09;;;24.49;81.60
54417;BME280;40326;51.220;7.250;2022-08-11T07:19:46;98902.78;;;24.98;79.23
54417;BME280;40326;51.220;7.250;2022-08-11T07:22:34;98907.91;;;24.74;69.61
54417;BME280;40326;51.220;7.250;2022-08-11T07:25:21;98906.91;;;25.27;65.47
54417;BME280;40326;51.220;7.250;2022-08-11T07:28:10;98900.03;;;25.34;72.16
54417;BME280;40326;51.220;7.250;2022-08-11T07:31:02;98900.16;;;25.66;66.04
54417;BME280;40326;51.220;7.250;2022-08-11T07:33:44;98902.19;;;25.72;61.80
54417;BME280;40326;51.220;7.250;2022-08-11T07:36:11;98899.09;;;25.85;68.49
54417;BME280;40326;51.220;7.250;2022-08-11T07:38:41;98899.59;;;25.89;64.03
54417;BME280;40326;51.220;7.250;2022-08-11T07:41:13;98898.06;;;25.78;60.48
54417;BME280;40326;51.220;7.250;2022-08-11T07:43:40;98901.22;;;25.90;58.92
54417;BME280;40326;51.220;7.250;2022-08-11T07:46:06;98897.63;;;25.91;55.61
54417;BME280;40326;51.220;7.250;2022-08-11T07:48:51;98888.84;;;25.66;55.80
54417;BME280;40326;51.220;7.250;2022-08-11T07:51:38;98890.16;;;25.62;55.03
54417;BME280;40326;51.220;7.250;2022-08-11T07:54:23;98887.53;;;25.70;55.17
54417;BME280;40326;51.220;7.250;2022-08-11T07:56:49;98886.84;;;26.43;50.48
54417;BME280;40326;51.220;7.250;2022-08-11T07:59:16;98889.78;;;26.07;50.29
54417;BME280;40326;51.220;7.250;2022-08-11T08:02:02;98892.59;;;26.46;52.18
54417;BME280;40326;51.220;7.250;2022-08-11T08:04:46;98889.50;;;26.43;53.85
54417;BME280;40326;51.220;7.250;2022-08-11T08:07:31;98889.50;;;26.43;48.70
54417;BME280;40326;51.220;7.250;2022-08-11T08:10:17;98893.38;;;26.06;49.93
54417;BME280;40326;51.220;7.250;2022-08-11T08:13:03;98889.44;;;26.35;47.63
54417;BME280;40326;51.220;7.250;2022-08-11T08:15:49;98884.78;;;26.94;47.54
54417;BME280;40326;51.220;7.250;2022-08-11T08:18:35;98886.41;;;26.95;49.51
54417;BME280;40326;51.220;7.250;2022-08-11T08:21:03;98894.03;;;26.73;46.00
54417;BME280;40326;51.220;7.250;2022-08-11T08:23:41;98895.84;;;27.36;47.32
54417;BME280;40326;51.220;7.250;2022-08-11T08:26:08;98893.59;;;28.10;41.00
54417;BME280;40326;51.220;7.250;2022-08-11T08:28:55;98894.13;;;27.83;44.32
54417;BME280;40326;51.220;7.250;2022-08-11T08:31:41;98890.41;;;28.23;43.86
54417;BME280;40326;51.220;7.250;2022-08-11T08:34:08;98897.69;;;28.13;43.03
54417;BME280;40326;51.220;7.250;2022-08-11T08:36:35;98897.56;;;27.83;42.42
54417;BME280;40326;51.220;7.250;2022-08-11T08:39:01;98902.31;;;28.11;40.80
54417;BME280;40326;51.220;7.250;2022-08-11T08:41:28;98899.84;;;28.40;39.69
54417;BME280;40326;51.220;7.250;2022-08-11T08:44:06;98893.56;;;28.41;41.02
54417;BME280;40326;51.220;7.250;2022-08-11T08:46:36;98889.13;;;28.56;40.46
54417;BME280;40326;51.220;7.250;2022-08-11T08:49:05;98901.34;;;28.35;42.48
54417;BME280;40326;51.220;7.250;2022-08-11T08:51:37;98897.44;;;28.68;39.73
54417;BME280;40326;51.220;7.250;2022-08-11T08:54:09;98902.50;;;27.86;41.28
54417;BME280;40326;51.220;7.250;2022-08-11T08:56:38;98902.22;;;28.65;40.80
54417;BME280;40326;51.220;7.250;2022-08-11T08:59:04;98902.50;;;27.86;39.15
54417;BME280;40326;51.220;7.250;2022-08-11T09:01:35;98899.22;;;28.07;39.47
54417;BME280;40326;51.220;7.250;2022-08-11T09:04:06;98903.81;;;28.36;38.18
54417;BME280;40326;51.220;7.250;2022-08-11T09:06:39;98904.38;;;28.23;39.14
54417;BME280;40326;51.220;7.250;2022-08-11T09:09:07;98905.44;;;28.14;37.61
54417;BME280;40326;51.220;7.250;2022-08-11T09:11:34;98903.50;;;28.69;36.79
54417;BME280;40326;51.220;7.250;2022-08-11T09:14:16;98892.44;;;29.18;37.54
54417;BME280;40326;51.220;7.250;2022-08-11T09:16:42;98895.44;;;29.59;38.45
54417;BME280;40326;51.220;7.250;2022-08-11T09:19:08;98890.88;;;29.38;35.62
54417;BME280;40326;51.220;7.250;2022-08-11T09:21:35;98893.16;;;28.82;38.65
54417;BME280;40326;51.220;7.250;2022-08-11T09:24:04;98899.91;;;28.47;36.82
54417;BME280;40326;51.220;7.250;2022-08-11T09:26:49;98883.19;;;28.40;38.14
54417;BME280;40326;51.220;7.250;2022-08-11T09:29:29;98899.75;;;28.25;38.67
54417;BME280;40326;51.220;7.250;2022-08-11T09:31:57;98892.34;;;28.81;37.71
54417;BME280;40326;51.220;7.250;2022-08-11T09:34:24;98888.94;;;28.96;37.74
54417;BME280;40326;51.220;7.250;2022-08-11T09:36:53;98877.00;;;28.85;34.86
54417;BME280;40326;51.220;7.250;2022-08-11T09:39:39;98878.34;;;28.81;35.68
54417;BME280;40326;51.220;7.250;2022-08-11T09:42:24;98883.19;;;28.92;36.53
54417;BME280;40326;51.220;7.250;2022-08-11T09:45:12;98876.72;;;29.24;38.67
54417;BME280;40326;51.220;7.250;2022-08-11T09:47:39;98879.69;;;29.36;37.81
54417;BME280;40326;51.220;7.250;2022-08-11T09:50:05;98876.16;;;29.58;36.42
54417;BME280;40326;51.220;7.250;2022-08-11T09:52:38;98882.19;;;29.74;35.79
54417;BME280;40326;51.220;7.250;2022-08-11T09:55:05;98887.84;;;29.71;35.92
54417;BME280;40326;51.220;7.250;2022-08-11T09:57:38;98880.06;;;29.48;34.99
54417;BME280;40326;51.220;7.250;2022-08-11T10:00:28;98879.84;;;29.64;37.88
54417;BME280;40326;51.220;7.250;2022-08-11T10:02:54;98872.66;;;29.94;35.29
54417;BME280;40326;51.220;7.250;2022-08-11T10:05:21;98881.06;;;30.26;36.19
54417;BME280;40326;51.220;7.250;2022-08-11T10:08:08;98869.00;;;30.38;36.30
54417;BME280;40326;51.220;7.250;2022-08-11T10:10:37;98873.63;;;29.72;35.88
54417;BME280;40326;51.220;7.250;2022-08-11T10:13:06;98870.44;;;29.40;35.15
54417;BME280;40326;51.220;7.250;2022-08-11T10:15:34;98864.84;;;29.86;34.87
54417;BME280;40326;51.220;7.250;2022-08-11T10:20:51;98859.03;;;30.12;35.31
54417;BME280;40326;51.220;7.250;2022-08-11T10:23:18;98859.38;;;29.00;35.33
54417;BME280;40326;51.220;7.250;2022-08-11T10:26:03;98856.81;;;28.92;35.15
54417;BME280;40326;51.220;7.250;2022-08-11T10:28:48;98863.53;;;29.96;35.00
54417;BME280;40326;51.220;7.250;2022-08-11T10:31:14;98856.59;;;29.74;35.12
54417;BME280;40326;51.220;7.250;2022-08-11T10:34:00;98850.59;;;30.23;34.05
54417;BME280;40326;51.220;7.250;2022-08-11T10:36:32;98845.03;;;29.96;33.27
54417;BME280;40326;51.220;7.250;2022-08-11T10:38:59;98855.03;;;29.80;33.73
54417;BME280;40326;51.220;7.250;2022-08-11T10:41:26;98846.56;;;29.48;34.19
54417;BME280;40326;51.220;7.250;2022-08-11T10:44:11;98841.72;;;29.88;33.07
54417;BME280;40326;51.220;7.250;2022-08-11T10:46:37;98843.22;;;29.97;33.69
54417;BME280;40326;51.220;7.250;2022-08-11T10:49:22;98834.28;;;30.19;34.16
54417;BME280;40326;51.220;7.250;2022-08-11T10:51:49;98832.22;;;29.36;35.18
54417;BME280;40326;51.220;7.250;2022-08-11T10:54:33;98840.50;;;29.48;35.08
54417;BME280;40326;51.220;7.250;2022-08-11T10:57:18;98837.00;;;29.62;32.51
54417;BME280;40326;51.220;7.250;2022-08-11T11:00:04;98823.72;;;30.19;32.90
54417;BME280;40326;51.220;7.250;2022-08-11T11:02:31;98825.72;;;30.67;31.90
54417;BME280;40326;51.220;7.250;2022-08-11T11:05:02;98817.94;;;30.09;32.87
54417;BME280;40326;51.220;7.250;2022-08-11T11:07:46;98823.72;;;29.55;34.75
54417;BME280;40326;51.220;7.250;2022-08-11T11:10:14;98816.19;;;30.16;34.67
54417;BME280;40326;51.220;7.250;2022-08-11T11:12:46;98820.66;;;30.44;33.04
54417;BME280;40326;51.220;7.250;2022-08-11T11:15:35;98824.75;;;29.97;33.90
54417;BME280;40326;51.220;7.250;2022-08-11T11:18:23;98812.41;;;30.26;34.04
54417;BME280;40326;51.220;7.250;2022-08-11T11:21:08;98808.50;;;30.00;31.65
54417;BME280;40326;51.220;7.250;2022-08-11T11:26:56;98813.03;;;30.06;32.24
54417;BME280;40326;51.220;7.250;2022-08-11T11:33:10;98789.72;;;29.88;32.35
54417;BME280;40326;51.220;7.250;2022-08-11T11:37:45;98791.50;;;29.81;31.50
54417;BME280;40326;51.220;7.250;2022-08-11T11:40:13;98788.41;;;30.20;31.59
54417;BME280;40326;51.220;7.250;2022-08-11T11:42:43;98788.28;;;29.64;33.51
54417;BME280;40326;51.220;7.250;2022-08-11T11:45:10;98775.53;;;30.45;33.98
54417;BME280;40326;51.220;7.250;2022-08-11T11:47:39;98783.19;;;30.34;31.54
54417;BME280;40326;51.220;7.250;2022-08-11T11:50:06;98777.16;;;30.40;32.07
54417;BME280;40326;51.220;7.250;2022-08-11T11:52:33;98776.81;;;30.00;32.61
54417;BME280;40326;51.220;7.250;2022-08-11T11:54:59;98782.78;;;29.59;31.55
54417;BME280;40326;51.220;7.250;2022-08-11T11:57:26;98773.47;;;29.85;32.79
54417;BME280;40326;51.220;7.250;2022-08-11T12:00:11;98768.81;;;29.65;32.15
54417;BME280;40326;51.220;7.250;2022-08-11T12:03:01;98785.38;;;28.87;32.01
54417;BME280;40326;51.220;7.250;2022-08-11T12:05:27;98774.56;;;29.33;32.36
54417;BME280;40326;51.220;7.250;2022-08-11T12:07:53;98770.22;;;29.61;31.89
54417;BME280;40326;51.220;7.250;2022-08-11T12:10:50;98759.00;;;30.02;32.35
54417;BME280;40326;51.220;7.250;2022-08-11T12:13:41;98758.84;;;30.10;31.84
54417;BME280;40326;51.220;7.250;2022-08-11T12:16:10;98750.31;;;30.43;30.03
54417;BME280;40326;51.220;7.250;2022-08-11T12:18:38;98754.69;;;30.57;30.44
54417;BME280;40326;51.220;7.250;2022-08-11T12:21:06;98753.13;;;30.69;31.07
54417;BME280;40326;51.220;7.250;2022-08-11T12:23:33;98747.50;;;30.86;31.41
54417;BME280;40326;51.220;7.250;2022-08-11T12:26:19;98745.19;;;30.35;31.82
54417;BME280;40326;51.220;7.250;2022-08-11T12:29:24;98748.31;;;29.89;32.01
54417;BME280;40326;51.220;7.250;2022-08-11T12:31:52;98741.75;;;30.06;32.36
54417;BME280;40326;51.220;7.250;2022-08-11T12:34:19;98741.59;;;30.77;32.56
54417;BME280;40326;51.220;7.250;2022-08-11T12:36:51;98729.38;;;30.41;31.75
54417;BME280;40326;51.220;7.250;2022-08-11T12:39:21;98728.94;;;30.03;32.23
54417;BME280;40326;51.220;7.250;2022-08-11T12:42:10;98727.38;;;30.85;31.23
54417;BME280;40326;51.220;7.250;2022-08-11T12:44:56;98725.56;;;30.50;31.32
54417;BME280;40326;51.220;7.250;2022-08-11T12:47:43;98717.66;;;30.92;32.61
54417;BME280;40326;51.220;7.250;2022-08-11T12:50:29;98722.78;;;31.13;31.51
54417;BME280;40326;51.220;7.250;2022-08-11T12:53:14;98721.16;;;31.12;30.49
54417;BME280;40326;51.220;7.250;2022-08-11T12:55:40;98719.44;;;30.91;30.47
54417;BME280;40326;51.220;7.250;2022-08-11T12:58:26;98708.28;;;30.96;30.46
54417;BME280;40326;51.220;7.250;2022-08-11T13:00:52;98698.63;;;31.43;30.07
54417;BME280;40326;51.220;7.250;2022-08-11T13:03:37;98699.56;;;30.54;31.45
54417;BME280;40326;51.220;7.250;2022-08-11T13:06:23;98702.72;;;30.30;31.65
54417;BME280;40326;51.220;7.250;2022-08-11T13:08:49;98692.97;;;30.78;31.08
54417;BME280;40326;51.220;7.250;2022-08-11T13:11:15;98697.94;;;30.53;30.58
54417;BME280;40326;51.220;7.250;2022-08-11T13:14:00;98694.59;;;30.79;31.14
54417;BME280;40326;51.220;7.250;2022-08-11T13:16:31;98693.28;;;31.16;31.81
54417;BME280;40326;51.220;7.250;2022-08-11T13:19:18;98693.31;;;31.36;30.73
54417;BME280;40326;51.220;7.250;2022-08-11T13:21:45;98691.38;;;30.84;30.14
54417;BME280;40326;51.220;7.250;2022-08-11T13:24:11;98686.88;;;30.77;30.99
54417;BME280;40326;51.220;7.250;2022-08-11T13:26:37;98681.56;;;30.71;30.33
54417;BME280;40326;51.220;7.250;2022-08-11T13:29:03;98676.56;;;30.96;31.27
54417;BME280;40326;51.220;7.250;2022-08-11T13:31:29;98679.19;;;30.83;30.78
54417;BME280;40326;51.220;7.250;2022-08-11T13:33:55;98688.28;;;30.73;31.68
54417;BME280;40326;51.220;7.250;2022-08-11T13:36:21;98680.97;;;30.75;31.10
54417;BME280;40326;51.220;7.250;2022-08-11T13:38:53;98672.94;;;30.49;30.60
54417;BME280;40326;51.220;7.250;2022-08-11T13:41:19;98672.66;;;30.78;30.73
54417;BME280;40326;51.220;7.250;2022-08-11T13:44:04;98668.19;;;30.31;31.50
54417;BME280;40326;51.220;7.250;2022-08-11T13:46:31;98668.38;;;30.77;31.33
54417;BME280;40326;51.220;7.250;2022-08-11T13:48:56;98663.22;;;31.37;30.35
54417;BME280;40326;51.220;7.250;2022-08-11T13:51:23;98652.19;;;32.00;30.74
54417;BME280;40326;51.220;7.250;2022-08-11T13:53:59;98648.53;;;31.74;29.57
54417;BME280;40326;51.220;7.250;2022-08-11T13:56:26;98652.22;;;31.60;30.10
54417;BME280;40326;51.220;7.250;2022-08-11T13:58:53;98645.72;;;31.29;29.49
54417;BME280;40326;51.220;7.250;2022-08-11T14:01:19;98654.22;;;31.12;31.30
54417;BME280;40326;51.220;7.250;2022-08-11T14:03:46;98643.66;;;31.25;31.60
54417;BME280;40326;51.220;7.250;2022-08-11T14:06:16;98637.75;;;31.76;30.77
54417;BME280;40326;51.220;7.250;2022-08-11T14:08:43;98639.53;;;30.96;31.04
54417;BME280;40326;51.220;7.250;2022-08-11T14:11:10;98635.63;;;30.78;31.90
54417;BME280;40326;51.220;7.250;2022-08-11T14:13:56;98651.19;;;30.53;31.43
54417;BME280;40326;51.220;7.250;2022-08-11T14:16:29;98643.47;;;30.52;31.64
54417;BME280;40326;51.220;7.250;2022-08-11T14:19:00;98641.50;;;30.67;31.19
54417;BME280;40326;51.220;7.250;2022-08-11T14:21:27;98630.63;;;31.23;31.19
54417;BME280;40326;51.220;7.250;2022-08-11T14:24:15;98634.09;;;31.83;30.67
54417;BME280;40326;51.220;7.250;2022-08-11T14:26:41;98626.53;;;31.60;31.12
54417;BME280;40326;51.220;7.250;2022-08-11T14:29:08;98623.72;;;31.22;31.73
54417;BME280;40326;51.220;7.250;2022-08-11T14:31:38;98619.22;;;31.03;31.32
54417;BME280;40326;51.220;7.250;2022-08-11T14:34:08;98626.13;;;31.17;31.60
54417;BME280;40326;51.220;7.250;2022-08-11T14:36:42;98617.38;;;31.17;31.49
54417;BME280;40326;51.220;7.250;2022-08-11T14:39:12;98618.44;;;31.49;30.90
54417;BME280;40326;51.220;7.250;2022-08-11T14:41:44;98618.81;;;31.85;30.33
54417;BME280;40326;51.220;7.250;2022-08-11T14:44:30;98618.38;;;30.83;32.22
54417;BME280;40326;51.220;7.250;2022-08-11T14:47:16;98613.72;;;31.51;31.04
54417;BME280;40326;51.220;7.250;2022-08-11T14:49:42;98607.84;;;31.22;32.11
54417;BME280;40326;51.220;7.250;2022-08-11T14:52:17;98617.47;;;30.62;31.40
54417;BME280;40326;51.220;7.250;2022-08-11T14:54:47;98613.34;;;30.40;31.65
54417;BME280;40326;51.220;7.250;2022-08-11T14:57:36;98601.69;;;30.95;31.41
54417;BME280;40326;51.220;7.250;2022-08-11T15:00:04;98603.59;;;31.21;31.03
54417;BME280;40326;51.220;7.250;2022-08-11T15:02:32;98609.00;;;30.87;31.43
54417;BME280;40326;51.220;7.250;2022-08-11T15:05:19;98601.91;;;31.60;31.02
54417;BME280;40326;51.220;7.250;2022-08-11T15:07:45;98600.88;;;31.68;31.10
54417;BME280;40326;51.220;7.250;2022-08-11T15:10:11;98606.03;;;30.42;30.57
54417;BME280;40326;51.220;7.250;2022-08-11T15:12:38;98606.06;;;30.55;31.16
54417;BME280;40326;51.220;7.250;2022-08-11T15:15:07;98597.13;;;30.56;31.46
54417;BME280;40326;51.220;7.250;2022-08-11T15:17:54;98603.50;;;30.68;31.01
54417;BME280;40326;51.220;7.250;2022-08-11T15:20:20;98592.81;;;30.42;31.59
54417;BME280;40326;51.220;7.250;2022-08-11T15:23:05;98596.78;;;30.11;30.70
54417;BME280;40326;51.220;7.250;2022-08-11T15:26:54;98588.13;;;30.31;31.04
54417;BME280;40326;51.220;7.250;2022-08-11T15:29:33;98591.41;;;30.52;31.34
54417;BME280;40326;51.220;7.250;2022-08-11T15:32:18;98586.50;;;30.36;31.85
54417;BME280;40326;51.220;7.250;2022-08-11T15:34:58;98580.03;;;30.52;32.37
54417;BME280;40326;51.220;7.250;2022-08-11T15:37:44;98579.31;;;30.91;31.17
54417;BME280;40326;51.220;7.250;2022-08-11T15:40:34;98582.41;;;30.27;32.09
54417;BME280;40326;51.220;7.250;2022-08-11T15:43:27;98574.22;;;30.15;31.86
54417;BME280;40326;51.220;7.250;2022-08-11T15:46:29;98562.81;;;30.08;32.53
54417;BME280;40326;51.220;7.250;2022-08-11T15:49:01;98565.81;;;29.64;33.36
54417;BME280;40326;51.220;7.250;2022-08-11T15:51:36;98561.84;;;29.75;32.90
54417;BME280;40326;51.220;7.250;2022-08-11T15:54:09;98563.53;;;29.89;33.26
54417;BME280;40326;51.220;7.250;2022-08-11T15:56:41;98556.63;;;29.88;33.64
54417;BME280;40326;51.220;7.250;2022-08-11T15:59:10;98567.91;;;30.10;33.12
54417;BME280;40326;51.220;7.250;2022-08-11T16:01:57;98561.72;;;29.96;34.29
54417;BME280;40326;51.220;7.250;2022-08-11T16:04:46;98563.59;;;29.61;33.59
54417;BME280;40326;51.220;7.250;2022-08-11T16:07:15;98563.63;;;29.74;32.84
54417;BME280;40326;51.220;7.250;2022-08-11T16:09:52;98558.69;;;29.30;33.13
54417;BME280;40326;51.220;7.250;2022-08-11T16:12:24;98552.41;;;29.59;34.00
54417;BME280;40326;51.220;7.250;2022-08-11T16:14:55;98552.97;;;29.26;33.02
54417;BME280;40326;51.220;7.250;2022-08-11T16:17:43;98542.88;;;29.36;33.15
54417;BME280;40326;51.220;7.250;2022-08-11T16:20:10;98557.25;;;29.55;33.76
54417;BME280;40326;51.220;7.250;2022-08-11T16:22:37;98543.47;;;29.32;33.40
54417;BME280;40326;51.220;7.250;2022-08-11T16:25:07;98545.41;;;29.17;33.68
54417;BME280;40326;51.220;7.250;2022-08-11T16:27:36;98551.94;;;29.49;33.22
54417;BME280;40326;51.220;7.250;2022-08-11T16:30:03;98546.59;;;29.14;33.30
54417;BME280;40326;51.220;7.250;2022-08-11T16:32:30;98550.38;;;29.33;33.77
54417;BME280;40326;51.220;7.250;2022-08-11T16:35:16;98544.41;;;29.80;33.20
54417;BME280;40326;51.220;7.250;2022-08-11T16:38:03;98553.03;;;29.33;33.68
54417;BME280;40326;51.220;7.250;2022-08-11T16:40:51;98546.41;;;29.16;34.18
54417;BME280;40326;51.220;7.250;2022-08-11T16:43:19;98539.25;;;29.09;34.16
54417;BME280;40326;51.220;7.250;2022-08-11T16:46:05;98546.75;;;29.34;34.77
54417;BME280;40326;51.220;7.250;2022-08-11T16:48:50;98540.78;;;28.97;34.22
54417;BME280;40326;51.220;7.250;2022-08-11T16:51:19;98542.91;;;29.08;34.65
54417;BME280;40326;51.220;7.250;2022-08-11T16:53:47;98546.53;;;28.86;35.05
54417;BME280;40326;51.220;7.250;2022-08-11T16:56:24;98533.28;;;28.94;35.50
54417;BME280;40326;51.220;7.250;2022-08-11T16:58:53;98541.03;;;28.60;35.59
54417;BME280;40326;51.220;7.250;2022-08-11T17:01:47;98534.50;;;28.77;34.54
54417;BME280;40326;51.220;7.250;2022-08-11T17:04:39;98538.28;;;28.68;35.09